Time;durP1;ratioP1;P1;durP2;ratioP2;P2;SDS_P1;SDS_P2;PMS_P1;PMS_P2;Temp;Humidity;BMP_temperature;BMP_pressure;BME280_temperature;BME280_humidity;BME280_pressure;Samples;Min_cycle;Max_cycle;Signal;HPM_P1;HPM_P2
2023/12/05 00:01:05;;;;;;;;;;;18.50;44.90;;;;;;7399352;19;1649;-61
2023/12/05 00:03:30;;;;;;;;;;;18.60;45.00;;;;;;7398561;19;1846;-62
2023/12/05 00:05:55;;;;;;;;;;;18.50;44.90;;;;;;7398454;19;3495;-62
2023/12/05 00:08:21;;;;;;;;;;;18.60;44.90;;;;;;7397647;19;1703;-62
2023/12/05 00:10:46;;;;;;;;;;;18.50;44.80;;;;;;7401628;19;1544;-62
2023/12/05 00:13:12;;;;;;;;;;;18.50;44.80;;;;;;7396352;19;4230;-61
2023/12/05 00:15:37;;;;;;;;;;;18.50;44.80;;;;;;7400219;19;1597;-62
2023/12/05 00:18:03;;;;;;;;;;;18.50;44.70;;;;;;7395000;19;3442;-62
2023/12/05 00:20:28;;;;;;;;;;;18.50;44.60;;;;;;7396701;19;3277;-62
2023/12/05 00:22:54;;;;;;;;;;;18.50;44.80;;;;;;7399567;19;1740;-62
2023/12/05 00:25:19;;;;;;;;;;;18.50;44.70;;;;;;7397282;19;1926;-62
2023/12/05 00:27:44;;;;;;;;;;;18.50;44.70;;;;;;7398457;19;2644;-63
2023/12/05 00:30:10;;;;;;;;;;;18.50;44.60;;;;;;7400106;19;1370;-61
2023/12/05 00:32:36;;;;;;;;;;;18.50;44.70;;;;;;7398288;19;4176;-62
2023/12/05 00:35:01;;;;;;;;;;;18.60;44.80;;;;;;7399015;19;3342;-61
2023/12/05 00:37:27;;;;;;;;;;;18.50;44.60;;;;;;7399671;19;1769;-62
2023/12/05 00:39:52;;;;;;;;;;;18.50;44.60;;;;;;7399006;19;1549;-61
2023/12/05 00:42:18;;;;;;;;;;;18.50;44.80;;;;;;7399941;19;1623;-62
2023/12/05 00:44:43;;;;;;;;;;;18.50;44.70;;;;;;7397933;19;1846;-62
2023/12/05 00:47:08;;;;;;;;;;;18.50;44.80;;;;;;7397416;19;3475;-61
2023/12/05 00:49:34;;;;;;;;;;;18.40;45.40;;;;;;7396417;19;1645;-62
2023/12/05 00:52:00;;;;;;;;;;;18.40;44.70;;;;;;7398789;19;1560;-62
2023/12/05 00:54:25;;;;;;;;;;;18.40;44.60;;;;;;7396870;19;1603;-61
2023/12/05 00:56:50;;;;;;;;;;;18.40;44.50;;;;;;7398985;19;1466;-62
2023/12/05 00:59:17;;;;;;;;;;;18.40;44.60;;;;;;7399655;19;1591;-61
2023/12/05 01:01:42;;;;;;;;;;;18.40;44.60;;;;;;7399196;19;1625;-61
2023/12/05 01:04:08;;;;;;;;;;;18.40;44.70;;;;;;7394623;19;3968;-61
2023/12/05 01:06:33;;;;;;;;;;;18.40;44.50;;;;;;7399124;19;1735;-61
2023/12/05 01:08:58;;;;;;;;;;;18.40;44.50;;;;;;7397746;19;2719;-62
2023/12/05 01:11:24;;;;;;;;;;;18.40;44.50;;;;;;7398566;19;1585;-62
2023/12/05 01:13:50;;;;;;;;;;;18.40;44.50;;;;;;7395025;19;4788;-61
2023/12/05 01:16:15;;;;;;;;;;;18.40;44.50;;;;;;7396889;19;3364;-62
2023/12/05 01:18:41;;;;;;;;;;;18.40;44.40;;;;;;7399142;19;1653;-62
2023/12/05 01:21:06;;;;;;;;;;;18.40;44.30;;;;;;7397361;19;1619;-62
2023/12/05 01:23:32;;;;;;;;;;;18.40;44.40;;;;;;7395349;19;3561;-62
2023/12/05 01:25:57;;;;;;;;;;;18.40;44.30;;;;;;7398191;19;3313;-61
2023/12/05 01:28:23;;;;;;;;;;;18.40;44.40;;;;;;7394886;19;1978;-62
2023/12/05 01:30:48;;;;;;;;;;;18.40;44.40;;;;;;7398225;19;2558;-62
2023/12/05 01:33:13;;;;;;;;;;;18.40;44.20;;;;;;7395843;19;4281;-61
2023/12/05 01:35:39;;;;;;;;;;;18.40;44.30;;;;;;7397080;19;1678;-62
2023/12/05 01:38:04;;;;;;;;;;;18.40;44.40;;;;;;7394112;19;4065;-61
2023/12/05 01:40:30;;;;;;;;;;;18.40;44.40;;;;;;7399551;19;3326;-61
2023/12/05 01:42:55;;;;;;;;;;;18.40;44.40;;;;;;7394476;19;1525;-62
2023/12/05 01:45:20;;;;;;;;;;;18.40;44.20;;;;;;7395307;19;1850;-62
2023/12/05 01:47:46;;;;;;;;;;;18.40;44.20;;;;;;7393614;19;3450;-62
2023/12/05 01:50:32;;;;;;;;;;;18.40;44.20;;;;;;7395950;19;1645;-61
2023/12/05 01:52:58;;;;;;;;;;;18.40;44.30;;;;;;7395338;19;1598;-61
2023/12/05 01:55:24;;;;;;;;;;;18.40;44.20;;;;;;7397526;19;1662;-62
2023/12/05 01:57:49;;;;;;;;;;;18.40;44.80;;;;;;7398804;19;1605;-61
2023/12/05 02:00:15;;;;;;;;;;;18.40;44.20;;;;;;7392443;19;3480;-62
2023/12/05 02:02:41;;;;;;;;;;;18.40;44.20;;;;;;7396808;19;1672;-61
2023/12/05 02:05:07;;;;;;;;;;;18.40;44.10;;;;;;7396004;19;1857;-61
2023/12/05 02:07:33;;;;;;;;;;;18.40;44.10;;;;;;7398039;19;1645;-61
2023/12/05 02:09:58;;;;;;;;;;;18.40;44.10;;;;;;7393071;19;3550;-61
2023/12/05 02:12:24;;;;;;;;;;;18.40;44.10;;;;;;7397128;19;1597;-61
2023/12/05 02:14:49;;;;;;;;;;;18.40;44.10;;;;;;7392772;19;3254;-63
2023/12/05 02:17:19;;;;;;;;;;;18.40;44.00;;;;;;7395964;19;3233;-61
2023/12/05 02:19:58;;;;;;;;;;;18.40;44.10;;;;;;7395625;19;1489;-61
2023/12/05 02:22:23;;;;;;;;;;;18.40;44.10;;;;;;7395139;19;1715;-61
2023/12/05 02:25:06;;;;;;;;;;;18.40;44.10;;;;;;7392255;19;4935;-61
2023/12/05 02:27:39;;;;;;;;;;;18.40;44.10;;;;;;7397815;19;1639;-61
2023/12/05 02:30:04;;;;;;;;;;;18.40;44.10;;;;;;7395084;19;1663;-61
2023/12/05 02:32:30;;;;;;;;;;;18.40;44.80;;;;;;7395614;19;1633;-62
2023/12/05 02:34:55;;;;;;;;;;;18.40;44.20;;;;;;7394890;19;1626;-62
2023/12/05 02:37:21;;;;;;;;;;;18.40;44.00;;;;;;7395988;19;2023;-62
2023/12/05 02:40:07;;;;;;;;;;;18.40;44.10;;;;;;7394560;19;3373;-62
2023/12/05 02:42:32;;;;;;;;;;;18.40;44.10;;;;;;7397164;19;1570;-62
2023/12/05 02:44:57;;;;;;;;;;;18.40;43.90;;;;;;7390002;19;4403;-61
2023/12/05 02:47:23;;;;;;;;;;;18.40;43.90;;;;;;7394039;19;3386;-61
2023/12/05 02:49:49;;;;;;;;;;;18.40;44.00;;;;;;7397326;19;2970;-62
2023/12/05 02:52:14;;;;;;;;;;;18.40;43.90;;;;;;7393604;19;3536;-62
2023/12/05 02:54:40;;;;;;;;;;;18.40;43.90;;;;;;7392672;19;1624;-62
2023/12/05 02:57:05;;;;;;;;;;;18.40;43.90;;;;;;7391976;19;4475;-62
2023/12/05 02:59:31;;;;;;;;;;;18.40;43.90;;;;;;7393561;19;1608;-61
2023/12/05 03:01:56;;;;;;;;;;;18.30;43.80;;;;;;7396534;19;1427;-61
2023/12/05 03:04:21;;;;;;;;;;;18.40;43.90;;;;;;7399608;19;1850;-62
2023/12/05 03:06:47;;;;;;;;;;;18.40;43.90;;;;;;7400198;19;1657;-61
2023/12/05 03:09:12;;;;;;;;;;;18.40;44.00;;;;;;7400937;19;1640;-62
2023/12/05 03:11:38;;;;;;;;;;;18.40;43.90;;;;;;7401405;19;1368;-61
2023/12/05 03:14:06;;;;;;;;;;;18.30;43.80;;;;;;7401438;19;1632;-61
2023/12/05 03:16:31;;;;;;;;;;;18.30;43.80;;;;;;7401119;19;1425;-61
2023/12/05 03:18:57;;;;;;;;;;;18.30;44.00;;;;;;7401106;19;3440;-62
2023/12/05 03:21:22;;;;;;;;;;;18.30;43.80;;;;;;7403496;19;3837;-62
2023/12/05 03:23:48;;;;;;;;;;;18.30;43.80;;;;;;7400896;19;1850;-62
2023/12/05 03:26:20;;;;;;;;;;;18.40;43.80;;;;;;7399319;19;4801;-61
2023/12/05 03:28:45;;;;;;;;;;;18.30;43.70;;;;;;7400695;19;2932;-62
2023/12/05 03:31:11;;;;;;;;;;;18.30;43.80;;;;;;7400590;19;3364;-62
2023/12/05 03:33:37;;;;;;;;;;;18.30;43.80;;;;;;7400963;19;1757;-62
2023/12/05 03:36:02;;;;;;;;;;;18.40;43.80;;;;;;7398713;19;3796;-62
2023/12/05 03:38:28;;;;;;;;;;;18.40;43.70;;;;;;7401101;19;1597;-62
2023/12/05 03:40:54;;;;;;;;;;;18.40;43.80;;;;;;7400729;19;1501;-62
2023/12/05 03:43:20;;;;;;;;;;;18.40;43.80;;;;;;7398601;19;3643;-62
2023/12/05 03:45:45;;;;;;;;;;;18.40;43.80;;;;;;7401676;19;1738;-61
2023/12/05 03:48:11;;;;;;;;;;;18.40;43.80;;;;;;7396725;19;3702;-61
2023/12/05 03:50:36;;;;;;;;;;;18.40;43.80;;;;;;7402259;19;1645;-62
2023/12/05 03:53:02;;;;;;;;;;;18.40;43.80;;;;;;7401212;19;1497;-61
2023/12/05 03:55:27;;;;;;;;;;;18.40;43.80;;;;;;7398752;19;3694;-61
2023/12/05 03:57:52;;;;;;;;;;;18.30;43.70;;;;;;7401702;19;4120;-61
2023/12/05 04:00:18;;;;;;;;;;;18.30;43.70;;;;;;7398700;19;1658;-62
2023/12/05 04:02:43;;;;;;;;;;;18.30;43.80;;;;;;7400868;19;1697;-62
2023/12/05 04:05:09;;;;;;;;;;;18.30;43.80;;;;;;7395990;19;3532;-62
2023/12/05 04:07:36;;;;;;;;;;;18.30;43.80;;;;;;7400302;19;1649;-62
2023/12/05 04:10:01;;;;;;;;;;;18.30;43.70;;;;;;7401268;19;1636;-62
2023/12/05 04:12:27;;;;;;;;;;;18.30;43.70;;;;;;7398776;19;1545;-62
2023/12/05 04:14:52;;;;;;;;;;;18.30;43.70;;;;;;7397934;19;1497;-62
2023/12/05 04:17:17;;;;;;;;;;;18.30;43.70;;;;;;7397710;19;3508;-63
2023/12/05 04:19:43;;;;;;;;;;;18.30;43.80;;;;;;7397362;19;3896;-63
2023/12/05 04:22:08;;;;;;;;;;;18.30;43.90;;;;;;7399816;19;1978;-63
2023/12/05 04:24:34;;;;;;;;;;;18.30;43.70;;;;;;7398240;19;1846;-63
2023/12/05 04:26:59;;;;;;;;;;;18.30;43.70;;;;;;7394718;19;3551;-61
2023/12/05 04:29:24;;;;;;;;;;;18.30;43.70;;;;;;7399159;19;1535;-63
2023/12/05 04:31:50;;;;;;;;;;;18.30;43.70;;;;;;7400893;19;1696;-61
2023/12/05 04:34:15;;;;;;;;;;;18.30;43.70;;;;;;7400071;19;1617;-62
2023/12/05 04:36:41;;;;;;;;;;;18.30;44.40;;;;;;7397255;19;1874;-61
2023/12/05 04:39:07;;;;;;;;;;;18.30;43.70;;;;;;7397718;19;4271;-62
2023/12/05 04:41:34;;;;;;;;;;;18.30;43.70;;;;;;7398786;19;1539;-62
2023/12/05 04:44:00;;;;;;;;;;;18.30;43.80;;;;;;7396547;19;2611;-62
2023/12/05 04:46:25;;;;;;;;;;;18.30;43.80;;;;;;7395433;19;4635;-62
2023/12/05 04:48:50;;;;;;;;;;;18.30;43.80;;;;;;7395884;19;2034;-63
2023/12/05 04:51:19;;;;;;;;;;;18.30;43.80;;;;;;7398967;19;1830;-61
2023/12/05 04:53:45;;;;;;;;;;;18.30;43.80;;;;;;7396838;19;1535;-61
2023/12/05 04:56:10;;;;;;;;;;;18.30;43.80;;;;;;7399396;19;1631;-62
2023/12/05 04:58:36;;;;;;;;;;;18.30;43.70;;;;;;7395828;19;3690;-62
2023/12/05 05:01:01;;;;;;;;;;;18.30;43.70;;;;;;7398712;19;2732;-62
2023/12/05 05:03:27;;;;;;;;;;;18.20;43.70;;;;;;7398586;19;2813;-61
2023/12/05 05:05:52;;;;;;;;;;;18.30;43.70;;;;;;7395863;19;2791;-61
2023/12/05 05:08:17;;;;;;;;;;;18.30;43.70;;;;;;7396105;19;3472;-62
2023/12/05 05:10:43;;;;;;;;;;;18.30;43.80;;;;;;7400752;19;1743;-63
2023/12/05 05:13:08;;;;;;;;;;;18.30;43.90;;;;;;7398016;19;1512;-63
2023/12/05 05:15:34;;;;;;;;;;;18.30;43.80;;;;;;7395574;19;3522;-62
2023/12/05 05:17:59;;;;;;;;;;;18.30;43.90;;;;;;7397413;19;1527;-61
2023/12/05 05:20:25;;;;;;;;;;;18.30;44.50;;;;;;7398456;19;1458;-61
2023/12/05 05:22:50;;;;;;;;;;;18.30;43.80;;;;;;7394297;19;1626;-62
2023/12/05 05:25:16;;;;;;;;;;;18.30;43.80;;;;;;7397334;19;1862;-62
2023/12/05 05:27:41;;;;;;;;;;;18.30;43.80;;;;;;7396680;19;1617;-62
2023/12/05 05:30:09;;;;;;;;;;;18.30;43.80;;;;;;7391970;19;4563;-62
2023/12/05 05:32:34;;;;;;;;;;;18.30;43.80;;;;;;7393817;19;1495;-61
2023/12/05 05:35:00;;;;;;;;;;;18.20;43.80;;;;;;7398653;19;1511;-62
2023/12/05 05:37:25;;;;;;;;;;;18.30;43.80;;;;;;7393233;19;4310;-62
2023/12/05 05:39:51;;;;;;;;;;;18.30;43.80;;;;;;7397145;19;1803;-62
2023/12/05 05:42:16;;;;;;;;;;;18.30;43.70;;;;;;7398552;19;1601;-62
2023/12/05 05:44:44;;;;;;;;;;;18.20;43.60;;;;;;7392534;19;3619;-62
2023/12/05 05:47:09;;;;;;;;;;;18.20;43.60;;;;;;7396911;19;1598;-62
2023/12/05 05:49:35;;;;;;;;;;;18.20;43.50;;;;;;7397841;19;1482;-62
2023/12/05 05:52:00;;;;;;;;;;;18.20;43.70;;;;;;7393534;19;3507;-62
2023/12/05 05:54:26;;;;;;;;;;;18.30;43.60;;;;;;7398580;19;1692;-62
2023/12/05 05:56:51;;;;;;;;;;;18.20;43.70;;;;;;7393775;19;3661;-63
2023/12/05 05:59:16;;;;;;;;;;;18.30;43.60;;;;;;7397126;19;3710;-63
2023/12/05 06:01:42;;;;;;;;;;;18.20;43.60;;;;;;7395793;19;1652;-62
2023/12/05 06:04:07;;;;;;;;;;;18.20;43.50;;;;;;7396764;19;1849;-62
2023/12/05 06:06:33;;;;;;;;;;;18.20;43.50;;;;;;7394532;19;3731;-63
2023/12/05 06:08:58;;;;;;;;;;;18.20;43.60;;;;;;7396879;19;1986;-63
2023/12/05 06:11:24;;;;;;;;;;;18.20;43.60;;;;;;7393597;19;3355;-63
2023/12/05 06:13:49;;;;;;;;;;;18.30;43.70;;;;;;7393520;19;3965;-62
2023/12/05 06:16:15;;;;;;;;;;;18.30;43.60;;;;;;7393991;19;2914;-64
2023/12/05 06:18:40;;;;;;;;;;;18.30;43.60;;;;;;7393548;19;3422;-63
2023/12/05 06:21:06;;;;;;;;;;;18.30;43.50;;;;;;7394027;19;3862;-63
2023/12/05 06:23:31;;;;;;;;;;;18.30;43.40;;;;;;7393918;19;1864;-63
2023/12/05 06:25:56;;;;;;;;;;;18.30;43.50;;;;;;7397006;19;1555;-63
2023/12/05 06:28:22;;;;;;;;;;;18.30;43.40;;;;;;7393882;19;3468;-63
2023/12/05 06:30:47;;;;;;;;;;;18.30;43.50;;;;;;7395015;19;1746;-63
2023/12/05 06:33:13;;;;;;;;;;;18.30;43.60;;;;;;7396833;19;1679;-63
2023/12/05 06:35:38;;;;;;;;;;;18.30;44.20;;;;;;7392694;19;1843;-63
2023/12/05 06:38:04;;;;;;;;;;;18.30;43.50;;;;;;7397242;19;1899;-63
2023/12/05 06:40:29;;;;;;;;;;;18.30;43.60;;;;;;7400540;19;1577;-62
2023/12/05 06:42:55;;;;;;;;;;;18.30;43.60;;;;;;7401419;19;3566;-63
2023/12/05 06:45:20;;;;;;;;;;;18.30;43.40;;;;;;7397652;19;3308;-63
2023/12/05 06:47:46;;;;;;;;;;;18.40;43.30;;;;;;7402936;19;3470;-64
2023/12/05 06:50:11;;;;;;;;;;;18.40;43.30;;;;;;7397059;19;4220;-63
2023/12/05 06:52:37;;;;;;;;;;;18.40;43.30;;;;;;7402517;19;2528;-63
2023/12/05 06:55:03;;;;;;;;;;;18.40;43.20;;;;;;7402508;19;1441;-63
2023/12/05 06:57:29;;;;;;;;;;;18.40;43.10;;;;;;7400932;19;3497;-63
2023/12/05 06:59:54;;;;;;;;;;;18.50;43.20;;;;;;7400333;19;3888;-63
2023/12/05 07:02:20;;;;;;;;;;;18.50;43.20;;;;;;7398088;19;3896;-63
2023/12/05 07:04:45;;;;;;;;;;;18.50;43.20;;;;;;7398379;19;4661;-63
2023/12/05 07:07:11;;;;;;;;;;;18.50;43.20;;;;;;7401010;19;1574;-63
2023/12/05 07:09:36;;;;;;;;;;;18.50;43.20;;;;;;7396880;19;5069;-63
2023/12/05 07:12:01;;;;;;;;;;;18.50;43.20;;;;;;7403998;19;3155;-63
2023/12/05 07:14:27;;;;;;;;;;;18.50;43.20;;;;;;7400990;19;3337;-62
2023/12/05 07:16:52;;;;;;;;;;;18.50;43.20;;;;;;7398900;19;3876;-63
2023/12/05 07:19:18;;;;;;;;;;;18.50;43.20;;;;;;7401112;19;3856;-63
2023/12/05 07:21:43;;;;;;;;;;;18.50;43.20;;;;;;7401827;19;1519;-62
2023/12/05 07:24:09;;;;;;;;;;;18.40;43.20;;;;;;7402713;19;1841;-63
2023/12/05 07:26:34;;;;;;;;;;;18.50;43.20;;;;;;7396733;19;4278;-63
2023/12/05 07:29:00;;;;;;;;;;;18.50;43.20;;;;;;7402083;19;1452;-63
2023/12/05 07:31:26;;;;;;;;;;;18.50;43.40;;;;;;7395714;19;4860;-63
2023/12/05 07:33:51;;;;;;;;;;;18.40;43.30;;;;;;7400623;19;1428;-62
2023/12/05 07:36:16;;;;;;;;;;;18.40;43.30;;;;;;7399419;19;1558;-62
2023/12/05 07:38:42;;;;;;;;;;;18.50;43.50;;;;;;7400543;19;1509;-63
2023/12/05 07:41:16;;;;;;;;;;;18.50;43.50;;;;;;7400378;19;3651;-63
2023/12/05 07:43:41;;;;;;;;;;;18.50;43.40;;;;;;7398723;19;4015;-63
2023/12/05 07:46:07;;;;;;;;;;;18.50;43.40;;;;;;7402343;19;1630;-64
2023/12/05 07:48:33;;;;;;;;;;;18.50;43.40;;;;;;7398708;19;1394;-64
2023/12/05 07:50:58;;;;;;;;;;;18.50;43.40;;;;;;7392971;19;2712;-64
2023/12/05 07:53:24;;;;;;;;;;;18.50;43.40;;;;;;7395621;19;4967;-63
2023/12/05 07:55:49;;;;;;;;;;;18.50;43.30;;;;;;7399983;19;1661;-62
2023/12/05 07:58:14;;;;;;;;;;;18.50;43.40;;;;;;7402706;19;1324;-63
2023/12/05 08:00:40;;;;;;;;;;;18.50;43.40;;;;;;7391531;19;4241;-64
2023/12/05 08:03:05;;;;;;;;;;;18.50;43.30;;;;;;7391383;19;3579;-61
2023/12/05 08:05:31;;;;;;;;;;;18.50;43.40;;;;;;7390255;19;2717;-63
2023/12/05 08:07:57;;;;;;;;;;;18.50;43.60;;;;;;7393373;19;2723;-61
2023/12/05 08:10:23;;;;;;;;;;;18.90;43.60;;;;;;7390191;19;3992;-61
2023/12/05 08:12:49;;;;;;;;;;;19.60;42.90;;;;;;7391576;19;4600;-61
2023/12/05 08:15:14;;;;;;;;;;;20.00;41.90;;;;;;7399727;19;1824;-61
2023/12/05 08:17:39;;;;;;;;;;;20.50;41.30;;;;;;7400825;19;1365;-63
2023/12/05 08:20:05;;;;;;;;;;;20.70;40.70;;;;;;7396128;19;4664;-61
2023/12/05 08:22:32;;;;;;;;;;;20.90;40.60;;;;;;7395984;19;3607;-62
2023/12/05 08:24:57;;;;;;;;;;;21.00;40.40;;;;;;7394940;19;4321;-61
2023/12/05 08:27:23;;;;;;;;;;;21.10;40.10;;;;;;7398592;19;3971;-61
2023/12/05 08:29:48;;;;;;;;;;;21.20;40.20;;;;;;7400016;19;1577;-63
2023/12/05 08:32:13;;;;;;;;;;;21.20;40.10;;;;;;7398642;19;3683;-61
2023/12/05 08:34:39;;;;;;;;;;;21.20;40.00;;;;;;7397078;19;1738;-61
2023/12/05 08:37:05;;;;;;;;;;;21.30;40.10;;;;;;7399036;19;1448;-62
2023/12/05 08:39:31;;;;;;;;;;;21.20;40.10;;;;;;7396591;19;4196;-62
2023/12/05 08:41:59;;;;;;;;;;;21.20;40.10;;;;;;7393802;19;3561;-62
2023/12/05 08:44:25;;;;;;;;;;;21.30;40.10;;;;;;7390504;19;4488;-62
2023/12/05 08:46:50;;;;;;;;;;;21.30;40.20;;;;;;7394316;19;3856;-61
2023/12/05 08:49:15;;;;;;;;;;;21.30;40.10;;;;;;7395336;19;3540;-62
2023/12/05 08:51:41;;;;;;;;;;;21.30;40.20;;;;;;7395609;19;4196;-61
2023/12/05 08:54:06;;;;;;;;;;;21.30;40.20;;;;;;7396296;19;3729;-62
2023/12/05 08:56:32;;;;;;;;;;;21.30;40.20;;;;;;7397020;19;3680;-62
2023/12/05 08:58:57;;;;;;;;;;;21.40;40.20;;;;;;7386029;19;4707;-62
2023/12/05 09:01:23;;;;;;;;;;;21.40;40.10;;;;;;7397138;19;1820;-63
2023/12/05 09:03:51;;;;;;;;;;;21.40;40.20;;;;;;7392366;19;2699;-62
2023/12/05 09:06:17;;;;;;;;;;;21.40;40.40;;;;;;7395020;19;2691;-63
2023/12/05 09:08:42;;;;;;;;;;;21.40;40.30;;;;;;7392639;19;2420;-62
2023/12/05 09:11:08;;;;;;;;;;;21.40;40.10;;;;;;7396568;19;1816;-62
2023/12/05 09:13:34;;;;;;;;;;;21.40;40.10;;;;;;7395199;19;1785;-62
2023/12/05 09:15:59;;;;;;;;;;;21.50;40.20;;;;;;7399256;19;1647;-61
2023/12/05 09:18:25;;;;;;;;;;;21.50;40.20;;;;;;7396468;19;1580;-61
2023/12/05 09:20:50;;;;;;;;;;;21.40;40.20;;;;;;7396570;19;2642;-62
2023/12/05 09:23:16;;;;;;;;;;;21.40;40.30;;;;;;7398300;19;1587;-61
2023/12/05 09:25:41;;;;;;;;;;;21.40;40.30;;;;;;7396063;19;1842;-63
2023/12/05 09:28:07;;;;;;;;;;;21.50;40.40;;;;;;7398107;19;1554;-61
2023/12/05 09:30:32;;;;;;;;;;;21.50;40.30;;;;;;7395823;19;1650;-63
2023/12/05 09:32:57;;;;;;;;;;;21.50;40.30;;;;;;7396116;19;2023;-62
2023/12/05 09:35:23;;;;;;;;;;;21.50;40.30;;;;;;7398567;19;1648;-62
2023/12/05 09:37:48;;;;;;;;;;;21.50;40.30;;;;;;7397758;19;1793;-62
2023/12/05 09:40:14;;;;;;;;;;;21.60;40.30;;;;;;7396498;19;1517;-63
2023/12/05 09:42:41;;;;;;;;;;;21.60;40.30;;;;;;7396552;19;1663;-62
2023/12/05 09:45:07;;;;;;;;;;;21.60;40.30;;;;;;7394968;19;2147;-63
2023/12/05 09:47:32;;;;;;;;;;;21.60;40.10;;;;;;7395765;19;1776;-63
2023/12/05 09:49:58;;;;;;;;;;;21.70;40.20;;;;;;7396220;19;1698;-62
2023/12/05 09:52:23;;;;;;;;;;;21.70;40.10;;;;;;7395011;19;1743;-62
2023/12/05 09:54:49;;;;;;;;;;;21.70;40.30;;;;;;7395810;19;1476;-61
2023/12/05 09:57:14;;;;;;;;;;;21.60;40.20;;;;;;7397010;19;2258;-62
2023/12/05 09:59:40;;;;;;;;;;;21.60;40.20;;;;;;7392381;19;2261;-61
2023/12/05 10:02:05;;;;;;;;;;;21.70;40.20;;;;;;7395839;19;1983;-63
2023/12/05 10:04:32;;;;;;;;;;;21.70;40.10;;;;;;7394299;19;1850;-62
2023/12/05 10:07:00;;;;;;;;;;;21.70;40.20;;;;;;7394883;19;2333;-62
2023/12/05 10:09:26;;;;;;;;;;;21.70;40.30;;;;;;7392231;19;1706;-62
2023/12/05 10:11:52;;;;;;;;;;;21.70;40.20;;;;;;7395676;19;1377;-61
2023/12/05 10:14:17;;;;;;;;;;;21.70;40.30;;;;;;7391503;19;1591;-63
2023/12/05 10:16:43;;;;;;;;;;;21.70;40.30;;;;;;7393161;19;1652;-62
2023/12/05 10:19:08;;;;;;;;;;;21.70;40.20;;;;;;7394127;19;2064;-61
2023/12/05 10:21:34;;;;;;;;;;;21.80;40.30;;;;;;7392919;19;1961;-63
2023/12/05 10:23:59;;;;;;;;;;;21.80;40.90;;;;;;7392485;19;1869;-63
2023/12/05 10:26:25;;;;;;;;;;;21.70;40.20;;;;;;7394167;19;2380;-62
2023/12/05 10:28:50;;;;;;;;;;;21.80;40.30;;;;;;7395814;19;2057;-62
2023/12/05 10:31:16;;;;;;;;;;;21.70;40.30;;;;;;7397009;19;1640;-62
2023/12/05 10:33:42;;;;;;;;;;;21.60;40.50;;;;;;7393805;19;2733;-62
2023/12/05 10:36:11;;;;;;;;;;;21.60;40.50;;;;;;7396879;19;1810;-63
2023/12/05 10:38:36;;;;;;;;;;;21.70;40.40;;;;;;7391267;19;2798;-64
2023/12/05 10:41:02;;;;;;;;;;;21.70;40.40;;;;;;7393302;19;2965;-64
2023/12/05 10:43:28;;;;;;;;;;;21.70;40.40;;;;;;7396077;19;1851;-65
2023/12/05 10:45:54;;;;;;;;;;;21.80;40.50;;;;;;7394470;19;2753;-63
2023/12/05 10:48:19;;;;;;;;;;;21.90;40.50;;;;;;7393415;19;1736;-62
2023/12/05 10:50:46;;;;;;;;;;;21.80;40.40;;;;;;7382400;19;6721;-61
2023/12/05 10:53:11;;;;;;;;;;;21.80;40.50;;;;;;7387138;19;5297;-62
2023/12/05 10:55:37;;;;;;;;;;;21.70;40.70;;;;;;7395930;19;3388;-64
2023/12/05 10:58:02;;;;;;;;;;;21.70;40.80;;;;;;7394017;19;3279;-63
2023/12/05 11:00:30;;;;;;;;;;;21.70;40.80;;;;;;7389092;19;2813;-63
2023/12/05 11:02:56;;;;;;;;;;;21.80;40.60;;;;;;7393527;19;5503;-62
2023/12/05 11:05:22;;;;;;;;;;;21.90;40.60;;;;;;7390455;19;5292;-63
2023/12/05 11:07:47;;;;;;;;;;;21.80;40.70;;;;;;7393140;19;2708;-63
2023/12/05 11:10:13;;;;;;;;;;;21.70;40.90;;;;;;7393966;19;2203;-63
2023/12/05 11:12:39;;;;;;;;;;;21.80;41.00;;;;;;7388347;19;3263;-62
2023/12/05 11:15:05;;;;;;;;;;;21.80;40.80;;;;;;7391391;19;1723;-62
2023/12/05 11:17:34;;;;;;;;;;;21.80;40.80;;;;;;7393294;19;1678;-63
2023/12/05 11:20:05;;;;;;;;;;;21.90;40.60;;;;;;7390855;19;2628;-62
2023/12/05 11:22:39;;;;;;;;;;;21.90;40.70;;;;;;7394091;19;1989;-62
2023/12/05 11:25:05;;;;;;;;;;;22.00;40.50;;;;;;7395358;19;1850;-62
2023/12/05 11:27:33;;;;;;;;;;;22.00;40.60;;;;;;7400851;19;1687;-62
2023/12/05 11:30:17;;;;;;;;;;;22.00;40.50;;;;;;7397608;19;3455;-63
2023/12/05 11:33:04;;;;;;;;;;;22.00;40.60;;;;;;7400072;19;2039;-63
2023/12/05 11:35:56;;;;;;;;;;;22.10;40.60;;;;;;7399933;19;1488;-63
2023/12/05 11:38:22;;;;;;;;;;;22.10;40.50;;;;;;7395986;19;3770;-63
2023/12/05 11:41:06;;;;;;;;;;;22.10;40.70;;;;;;7394893;19;4796;-63
2023/12/05 11:43:32;;;;;;;;;;;22.10;40.60;;;;;;7396060;19;6941;-62
2023/12/05 11:45:57;;;;;;;;;;;22.10;40.60;;;;;;7398945;19;1797;-62
2023/12/05 11:48:26;;;;;;;;;;;22.10;40.60;;;;;;7398098;19;3293;-62
2023/12/05 11:50:51;;;;;;;;;;;22.10;40.70;;;;;;7398120;19;1725;-63
2023/12/05 11:53:17;;;;;;;;;;;22.20;40.70;;;;;;7398709;19;2463;-64
2023/12/05 11:55:45;;;;;;;;;;;22.10;40.70;;;;;;7400035;19;1756;-63
2023/12/05 11:58:49;;;;;;;;;;;22.10;40.70;;;;;;7398093;19;1615;-63
2023/12/05 12:01:15;;;;;;;;;;;22.10;40.80;;;;;;7394322;19;3387;-63
2023/12/05 12:03:46;;;;;;;;;;;22.20;41.00;;;;;;7395299;19;1850;-63
2023/12/05 12:06:11;;;;;;;;;;;22.10;40.90;;;;;;7395199;19;2258;-63
2023/12/05 12:08:37;;;;;;;;;;;22.20;41.00;;;;;;7390459;19;5527;-63
2023/12/05 12:11:02;;;;;;;;;;;22.20;41.50;;;;;;7396757;19;4167;-63
2023/12/05 12:13:28;;;;;;;;;;;22.20;41.00;;;;;;7398443;19;3478;-63
2023/12/05 12:15:53;;;;;;;;;;;22.20;40.80;;;;;;7390256;19;6239;-62
2023/12/05 12:18:23;;;;;;;;;;;22.20;40.80;;;;;;7397779;19;3399;-62
2023/12/05 12:20:50;;;;;;;;;;;22.20;41.00;;;;;;7399117;19;1593;-62
2023/12/05 12:23:15;;;;;;;;;;;22.20;41.00;;;;;;7397557;19;3180;-63
2023/12/05 12:25:53;;;;;;;;;;;22.20;41.00;;;;;;7397785;19;1846;-62
2023/12/05 12:28:25;;;;;;;;;;;22.20;41.00;;;;;;7400840;19;1875;-62
2023/12/05 12:30:51;;;;;;;;;;;22.20;41.00;;;;;;7397523;19;1717;-63
2023/12/05 12:33:16;;;;;;;;;;;22.30;41.20;;;;;;7399219;19;3691;-62
2023/12/05 12:35:42;;;;;;;;;;;22.30;41.10;;;;;;7396152;19;1703;-63
2023/12/05 12:38:09;;;;;;;;;;;22.30;41.20;;;;;;7397167;19;1602;-61
2023/12/05 12:40:35;;;;;;;;;;;22.30;41.10;;;;;;7398174;19;1645;-62
2023/12/05 12:43:00;;;;;;;;;;;22.30;41.20;;;;;;7399368;19;1461;-62
2023/12/05 12:45:26;;;;;;;;;;;22.30;41.20;;;;;;7397284;19;1851;-63
2023/12/05 12:47:55;;;;;;;;;;;22.30;41.20;;;;;;7400968;19;1679;-63
2023/12/05 12:50:21;;;;;;;;;;;22.40;41.20;;;;;;7400398;19;1621;-64
2023/12/05 12:52:47;;;;;;;;;;;22.40;41.20;;;;;;7397304;19;1858;-62
2023/12/05 12:55:12;;;;;;;;;;;22.30;41.30;;;;;;7397745;19;2090;-64
2023/12/05 12:57:38;;;;;;;;;;;22.30;41.20;;;;;;7399392;19;2062;-61
2023/12/05 13:00:09;;;;;;;;;;;22.30;41.20;;;;;;7392314;19;3440;-63
2023/12/05 13:02:35;;;;;;;;;;;22.30;41.20;;;;;;7397702;19;2666;-63
2023/12/05 13:05:01;;;;;;;;;;;22.40;41.30;;;;;;7395622;19;2460;-63
2023/12/05 13:07:26;;;;;;;;;;;22.40;41.30;;;;;;7398261;19;1669;-61
2023/12/05 13:09:52;;;;;;;;;;;22.40;41.30;;;;;;7393860;19;2586;-61
2023/12/05 13:12:21;;;;;;;;;;;22.40;41.20;;;;;;7395568;19;1951;-61
2023/12/05 13:14:49;;;;;;;;;;;22.40;41.20;;;;;;7394201;19;2890;-61
2023/12/05 13:17:15;;;;;;;;;;;22.40;41.40;;;;;;7397330;19;1578;-62
2023/12/05 13:19:41;;;;;;;;;;;22.30;41.20;;;;;;7396459;19;2004;-61
2023/12/05 13:22:07;;;;;;;;;;;22.30;41.10;;;;;;7397992;19;2737;-62
2023/12/05 13:24:32;;;;;;;;;;;22.30;41.10;;;;;;7395135;19;1854;-62
2023/12/05 13:26:58;;;;;;;;;;;22.40;41.10;;;;;;7394852;19;1805;-62
2023/12/05 13:29:24;;;;;;;;;;;22.30;41.10;;;;;;7396438;19;1784;-63
2023/12/05 13:31:49;;;;;;;;;;;22.50;41.10;;;;;;7395785;19;1543;-63
2023/12/05 13:34:15;;;;;;;;;;;22.40;41.20;;;;;;7393674;19;2685;-62
2023/12/05 13:36:40;;;;;;;;;;;22.40;41.10;;;;;;7392815;19;1651;-61
2023/12/05 13:39:08;;;;;;;;;;;22.40;41.10;;;;;;7393734;19;2433;-63
2023/12/05 13:41:33;;;;;;;;;;;22.40;41.00;;;;;;7397235;19;1687;-62
2023/12/05 13:44:00;;;;;;;;;;;22.40;41.20;;;;;;7395675;19;1842;-63
2023/12/05 13:46:27;;;;;;;;;;;22.40;41.20;;;;;;7395764;19;1658;-64
2023/12/05 13:48:52;;;;;;;;;;;22.40;41.10;;;;;;7396085;19;1951;-63
2023/12/05 13:51:17;;;;;;;;;;;22.50;41.20;;;;;;7398859;19;1969;-63
2023/12/05 13:53:43;;;;;;;;;;;22.40;41.10;;;;;;7393168;19;2191;-63
2023/12/05 13:56:09;;;;;;;;;;;22.50;41.20;;;;;;7393633;19;2242;-62
2023/12/05 13:58:35;;;;;;;;;;;22.50;41.10;;;;;;7396611;19;1667;-61
2023/12/05 14:01:01;;;;;;;;;;;22.50;41.20;;;;;;7394710;19;1638;-62
2023/12/05 14:03:26;;;;;;;;;;;22.50;41.20;;;;;;7395424;19;2000;-64
2023/12/05 14:05:52;;;;;;;;;;;22.50;41.10;;;;;;7393671;19;1846;-62
2023/12/05 14:08:17;;;;;;;;;;;22.40;41.10;;;;;;7392000;19;2168;-62
2023/12/05 14:10:42;;;;;;;;;;;22.40;41.10;;;;;;7389788;19;5979;-62
2023/12/05 14:13:08;;;;;;;;;;;22.40;41.20;;;;;;7396517;19;1703;-62
2023/12/05 14:15:34;;;;;;;;;;;22.50;41.20;;;;;;7393011;19;3466;-62
2023/12/05 14:17:59;;;;;;;;;;;22.50;41.20;;;;;;7394730;19;1838;-61
2023/12/05 14:20:25;;;;;;;;;;;22.50;41.20;;;;;;7394341;19;2099;-62
2023/12/05 14:22:50;;;;;;;;;;;22.50;41.20;;;;;;7393046;19;1762;-62
2023/12/05 14:25:15;;;;;;;;;;;22.50;41.20;;;;;;7393683;19;1834;-63